createdAt,value
2019-01-26T00:01:05.570Z,16.23
2019-01-26T00:06:11.500Z,17.30
2019-01-26T00:11:17.276Z,18.60
2019-01-26T00:16:22.705Z,17.57
2019-01-26T00:21:28.520Z,17.13
2019-01-26T00:26:36.322Z,18.13
2019-01-26T00:31:40.539Z,17.53
2019-01-26T00:36:45.950Z,18.97
2019-01-26T00:41:51.418Z,19.00
2019-01-26T00:46:56.878Z,18.30
2019-01-26T00:52:02.282Z,18.30
2019-01-26T00:57:08.140Z,16.50
2019-01-26T01:02:13.557Z,18.23
2019-01-26T01:07:18.969Z,16.73
2019-01-26T01:12:25.050Z,18.53
2019-01-26T01:17:31.158Z,17.20
2019-01-26T01:22:36.916Z,18.70
2019-01-26T01:27:42.408Z,16.40
2019-01-26T01:32:48.190Z,17.67
2019-01-26T01:37:53.635Z,17.37
2019-01-26T01:42:59.734Z,20.00
2019-01-26T01:48:05.958Z,19.47
2019-01-26T01:53:11.390Z,19.97
2019-01-26T01:58:17.805Z,19.17
2019-01-26T02:03:23.218Z,18.83
2019-01-26T02:08:29.007Z,18.87
2019-01-26T02:13:34.749Z,17.93
2019-01-26T02:18:40.213Z,18.67
2019-01-26T02:23:45.631Z,19.07
2019-01-26T02:28:51.402Z,17.83
2019-01-26T02:33:56.822Z,18.90
2019-01-26T02:39:02.943Z,18.13
2019-01-26T02:44:08.351Z,15.77
2019-01-26T02:49:13.784Z,18.40
2019-01-26T02:54:19.948Z,16.80
2019-01-26T02:59:25.766Z,16.27
2019-01-26T03:04:31.506Z,16.13
2019-01-26T03:09:37.368Z,17.70
2019-01-26T03:14:43.306Z,17.83
2019-01-26T03:19:49.051Z,16.77
2019-01-26T03:24:54.854Z,16.87
2019-01-26T03:30:00.283Z,17.23
2019-01-26T03:35:06.430Z,16.17
2019-01-26T03:40:13.087Z,17.37
2019-01-26T03:45:18.533Z,16.33
2019-01-26T03:50:24.320Z,16.50
2019-01-26T03:55:30.433Z,16.17
2019-01-26T04:00:35.869Z,16.70
2019-01-26T04:05:41.609Z,16.37
2019-01-26T04:10:47.349Z,14.53
2019-01-26T04:15:52.749Z,17.60
2019-01-26T04:20:58.496Z,18.27
2019-01-26T04:26:04.980Z,16.07
2019-01-26T04:31:10.714Z,16.47
2019-01-26T04:36:16.472Z,17.40
2019-01-26T04:41:21.874Z,18.13
2019-01-26T04:46:27.621Z,16.97
2019-01-26T04:51:33.032Z,18.30
2019-01-26T04:56:38.808Z,18.70
2019-01-26T05:01:44.621Z,16.83
2019-01-26T05:06:50.042Z,16.53
2019-01-26T05:11:55.806Z,18.13
2019-01-26T05:17:01.233Z,17.77
2019-01-26T05:22:07.045Z,18.33
2019-01-26T05:27:12.495Z,17.93
2019-01-26T05:32:18.323Z,17.53
2019-01-26T05:37:24.074Z,18.67
2019-01-26T05:42:29.862Z,19.10
2019-01-26T05:47:35.283Z,18.73
2019-01-26T05:52:41.136Z,19.63
2019-01-26T05:57:46.899Z,18.93
2019-01-26T06:02:52.674Z,17.97
2019-01-26T06:07:58.171Z,18.20
2019-01-26T06:13:03.925Z,18.43
2019-01-26T06:18:09.358Z,18.80
2019-01-26T06:23:15.111Z,18.70
2019-01-26T06:28:20.523Z,18.23
2019-01-26T06:33:26.634Z,20.00
2019-01-26T06:38:32.052Z,18.07
2019-01-26T06:43:38.141Z,19.40
2019-01-26T06:48:43.546Z,18.17
2019-01-26T06:53:49.290Z,18.30
2019-01-26T06:58:55.039Z,20.00
2019-01-26T07:04:00.773Z,19.73
2019-01-26T07:09:08.980Z,18.57
2019-01-26T07:14:14.383Z,20.30
2019-01-26T07:19:20.150Z,19.37
2019-01-26T07:24:25.902Z,19.03
2019-01-26T07:29:31.762Z,18.63
2019-01-26T07:34:37.513Z,19.53
2019-01-26T07:39:42.962Z,20.50
2019-01-26T07:44:48.367Z,21.97
2019-01-26T07:49:53.805Z,20.10
2019-01-26T07:54:59.878Z,19.47
2019-01-26T08:00:08.398Z,18.20
2019-01-26T08:05:13.861Z,17.33
2019-01-26T08:10:22.653Z,17.97
2019-01-26T08:15:33.889Z,17.00
2019-01-26T08:20:40.002Z,18.97
2019-01-26T08:25:45.407Z,15.73
2019-01-26T08:30:51.494Z,17.07
2019-01-26T08:35:56.907Z,16.30
2019-01-26T08:41:02.760Z,18.37
2019-01-26T08:46:08.189Z,20.40
2019-01-26T08:51:14.618Z,16.67
2019-01-26T08:56:20.033Z,15.53
2019-01-26T09:01:25.796Z,15.87
2019-01-26T09:06:37.754Z,16.37
2019-01-26T09:11:43.518Z,15.57
2019-01-26T09:16:49.179Z,16.47
2019-01-26T09:21:54.930Z,14.73
2019-01-26T09:27:00.318Z,17.33
2019-01-26T09:32:06.486Z,16.77
2019-01-26T09:37:12.596Z,15.53
2019-01-26T09:42:17.994Z,17.03
2019-01-26T09:47:23.799Z,15.87
2019-01-26T09:52:29.982Z,15.67
2019-01-26T09:57:35.453Z,13.87
2019-01-26T10:02:40.922Z,14.27
2019-01-26T10:07:46.658Z,12.97
2019-01-26T10:12:52.447Z,14.17
2019-01-26T10:17:58.338Z,13.83
2019-01-26T10:23:04.123Z,14.47
2019-01-26T10:28:10.327Z,15.03
2019-01-26T10:33:15.954Z,15.73
2019-01-26T10:38:22.026Z,15.53
2019-01-26T10:43:28.264Z,13.13
2019-01-26T10:48:34.001Z,12.93
2019-01-26T10:53:39.915Z,12.60
2019-01-26T10:58:45.490Z,11.23
2019-01-26T11:03:51.154Z,11.97
2019-01-26T11:08:57.047Z,11.80
2019-01-26T11:14:02.445Z,9.73
2019-01-26T11:19:08.176Z,10.67
2019-01-26T11:24:13.780Z,9.70
2019-01-26T11:29:19.631Z,10.67
2019-01-26T11:34:25.307Z,10.23
2019-01-26T11:39:30.755Z,9.47
2019-01-26T11:44:36.190Z,9.90
2019-01-26T11:49:45.619Z,9.67
2019-01-26T11:54:59.114Z,10.63
2019-01-26T12:00:18.898Z,10.97
2019-01-26T12:05:32.302Z,10.43
2019-01-26T12:10:38.847Z,11.77
2019-01-26T12:15:44.958Z,13.23
2019-01-26T12:20:51.030Z,11.03
2019-01-26T12:25:56.442Z,12.53
2019-01-26T12:31:02.399Z,13.13
2019-01-26T12:36:07.854Z,12.30
2019-01-26T12:41:19.941Z,12.63
2019-01-26T12:46:25.684Z,12.03
2019-01-26T12:51:32.138Z,12.50
2019-01-26T12:56:37.910Z,12.17
2019-01-26T13:01:43.638Z,13.13
2019-01-26T13:06:49.382Z,11.40
2019-01-26T13:11:55.279Z,11.20
2019-01-26T13:17:01.106Z,11.30
2019-01-26T13:22:06.622Z,11.07
2019-01-26T13:27:12.130Z,9.27
2019-01-26T13:32:18.218Z,9.67
2019-01-26T13:37:23.625Z,9.60
2019-01-26T13:42:29.026Z,8.33
2019-01-26T13:47:37.908Z,8.60
2019-01-26T13:52:40.294Z,8.50
2019-01-26T13:57:46.035Z,8.30
2019-01-26T14:02:51.800Z,7.83
2019-01-26T14:07:57.198Z,7.93
2019-01-26T14:13:02.970Z,7.07
2019-01-26T14:18:08.373Z,7.27
2019-01-26T14:23:13.797Z,6.57
2019-01-26T14:28:19.378Z,6.43
2019-01-26T14:33:24.806Z,6.77
2019-01-26T14:38:30.899Z,6.23
2019-01-26T14:43:36.318Z,6.47
2019-01-26T14:48:41.725Z,5.50
2019-01-26T14:53:47.811Z,5.77
2019-01-26T14:58:52.554Z,5.63
2019-01-26T15:03:58.358Z,5.40
2019-01-26T15:09:03.967Z,5.30
2019-01-26T15:14:09.734Z,5.57
2019-01-26T15:19:15.782Z,5.73
2019-01-26T15:24:21.187Z,5.60
2019-01-26T15:29:26.582Z,5.87
2019-01-26T15:34:31.973Z,5.13
2019-01-26T15:39:37.738Z,5.67
2019-01-26T15:44:43.845Z,8.10
2019-01-26T15:49:49.250Z,18.93
2019-01-26T15:54:55.338Z,7.90
2019-01-26T16:00:00.730Z,9.27
2019-01-26T16:05:06.997Z,9.70
2019-01-26T16:10:14.514Z,6.57
2019-01-26T16:15:23.254Z,7.87
2019-01-26T16:20:28.691Z,8.67
2019-01-26T16:25:34.774Z,8.63
2019-01-26T16:30:40.609Z,8.57
2019-01-26T16:35:46.177Z,8.47
2019-01-26T16:40:51.590Z,8.83
2019-01-26T16:45:57.003Z,9.20
2019-01-26T16:51:03.352Z,8.67
2019-01-26T16:56:08.778Z,10.67
2019-01-26T17:01:14.502Z,8.93
2019-01-26T17:06:20.245Z,8.23
2019-01-26T17:11:25.638Z,8.00
2019-01-26T17:16:31.035Z,7.77
2019-01-26T17:21:36.786Z,8.87
2019-01-26T17:26:42.185Z,9.43
2019-01-26T17:31:47.591Z,9.70
2019-01-26T17:36:53.359Z,9.70
2019-01-26T17:41:58.826Z,8.30
2019-01-26T17:47:04.607Z,8.43
2019-01-26T17:52:09.999Z,9.33
2019-01-26T17:57:15.398Z,9.00
2019-01-26T18:02:21.182Z,9.67
2019-01-26T18:07:26.583Z,9.80
2019-01-26T18:12:31.994Z,9.73
2019-01-26T18:17:37.392Z,10.33
2019-01-26T18:22:43.135Z,10.67
2019-01-26T18:27:49.234Z,9.30
2019-01-26T18:32:54.666Z,9.30
2019-01-26T18:38:00.442Z,10.70
2019-01-26T18:43:06.253Z,10.03
2019-01-26T18:48:11.658Z,8.83
2019-01-26T18:53:17.409Z,9.87
2019-01-26T18:58:23.135Z,7.70
2019-01-26T19:04:11.387Z,7.37
2019-01-26T19:09:17.518Z,6.93
2019-01-26T19:14:22.919Z,7.17
2019-01-26T19:19:28.342Z,7.37
2019-01-26T19:24:33.730Z,6.63
2019-01-26T19:29:39.158Z,10.50
2019-01-26T19:34:45.290Z,9.17
2019-01-26T19:39:50.693Z,5.97
2019-01-26T19:44:56.154Z,7.37
2019-01-26T19:50:02.023Z,7.60
2019-01-26T19:55:07.748Z,8.40
2019-01-26T20:00:13.158Z,6.80
2019-01-26T20:05:20.243Z,6.23
2019-01-26T20:10:25.686Z,6.40
2019-01-26T20:15:31.807Z,7.23
2019-01-26T20:20:39.306Z,6.33
2019-01-26T20:25:44.034Z,6.07
2019-01-26T20:30:49.446Z,8.13
2019-01-26T20:35:55.234Z,7.73
2019-01-26T20:41:00.691Z,7.17
2019-01-26T20:46:06.437Z,5.73
2019-01-26T20:51:11.842Z,5.47
2019-01-26T20:56:17.634Z,6.03
2019-01-26T21:01:23.846Z,5.20
2019-01-26T21:06:29.586Z,5.67
2019-01-26T21:11:35.678Z,6.20
2019-01-26T21:16:41.822Z,5.60
2019-01-26T21:21:47.602Z,6.67
2019-01-26T21:26:53.367Z,5.73
2019-01-26T21:31:59.590Z,5.43
2019-01-26T21:37:05.370Z,5.60
2019-01-26T21:42:10.771Z,5.40
2019-01-26T21:47:16.183Z,5.23
2019-01-26T21:52:21.945Z,5.83
2019-01-26T21:57:27.363Z,5.70
2019-01-26T22:02:33.184Z,6.17
2019-01-26T22:07:39.687Z,7.87
2019-01-26T22:12:45.786Z,5.97
2019-01-26T22:17:51.211Z,7.23
2019-01-26T22:22:56.658Z,6.80
2019-01-26T22:28:02.398Z,6.70
2019-01-26T22:33:08.154Z,7.60
2019-01-26T22:38:13.914Z,8.17
2019-01-26T22:43:19.650Z,8.57
2019-01-26T22:48:25.418Z,8.77
2019-01-26T22:53:30.818Z,9.83
2019-01-26T22:58:36.599Z,9.93
2019-01-26T23:03:56.264Z,10.73
2019-01-26T23:09:11.177Z,11.93
2019-01-26T23:14:35.390Z,11.67
2019-01-26T23:20:22.867Z,12.73
2019-01-26T23:25:50.041Z,12.70
2019-01-26T23:31:12.623Z,12.90
2019-01-26T23:36:18.486Z,17.73
2019-01-26T23:41:24.076Z,14.57
2019-01-26T23:46:29.506Z,14.10
2019-01-26T23:51:35.286Z,13.30
2019-01-26T23:56:41.054Z,14.87
